sensor_id;sensor_type;location;lat;lon;timestamp;pressure;altitude;pressure_sealevel;temperature;humidity
47080;BME280;33067;49.296;14.470;2023-03-14T00:00:34;95403.23;;;9.33;40.18
47080;BME280;33067;49.296;14.470;2023-03-14T00:02:59;95402.55;;;9.63;39.27
47080;BME280;33067;49.296;14.470;2023-03-14T00:05:25;95381.79;;;10.81;37.29
47080;BME280;33067;49.296;14.470;2023-03-14T00:07:50;95417.52;;;10.60;37.64
47080;BME280;33067;49.296;14.470;2023-03-14T00:10:15;95406.27;;;10.83;37.34
47080;BME280;33067;49.296;14.470;2023-03-14T00:12:41;95417.29;;;10.55;37.26
47080;BME280;33067;49.296;14.470;2023-03-14T00:15:07;95412.21;;;10.95;36.57
47080;BME280;33067;49.296;14.470;2023-03-14T00:17:31;95409.25;;;11.26;36.09
47080;BME280;33067;49.296;14.470;2023-03-14T00:19:56;95399.37;;;11.57;35.87
47080;BME280;33067;49.296;14.470;2023-03-14T00:22:22;95384.32;;;11.57;35.23
47080;BME280;33067;49.296;14.470;2023-03-14T00:24:47;95380.71;;;12.16;34.98
47080;BME280;33067;49.296;14.470;2023-03-14T00:27:13;95374.55;;;12.04;34.74
47080;BME280;33067;49.296;14.470;2023-03-14T00:29:38;95368.87;;;11.92;34.44
47080;BME280;33067;49.296;14.470;2023-03-14T00:32:04;95362.03;;;12.07;34.19
47080;BME280;33067;49.296;14.470;2023-03-14T00:34:29;95357.45;;;12.33;34.37
47080;BME280;33067;49.296;14.470;2023-03-14T00:36:53;95353.30;;;12.55;34.09
47080;BME280;33067;49.296;14.470;2023-03-14T00:39:19;95349.72;;;12.42;34.00
47080;BME280;33067;49.296;14.470;2023-03-14T00:41:44;95350.61;;;12.45;34.12
47080;BME280;33067;49.296;14.470;2023-03-14T00:44:09;95347.33;;;12.74;33.90
47080;BME280;33067;49.296;14.470;2023-03-14T00:46:35;95338.37;;;12.81;33.94
47080;BME280;33067;49.296;14.470;2023-03-14T00:49:00;95334.20;;;12.84;33.92
47080;BME280;33067;49.296;14.470;2023-03-14T00:51:26;95322.28;;;12.54;33.86
47080;BME280;33067;49.296;14.470;2023-03-14T00:53:51;95311.62;;;12.83;33.43
47080;BME280;33067;49.296;14.470;2023-03-14T00:56:16;95302.83;;;12.23;33.90
47080;BME280;33067;49.296;14.470;2023-03-14T00:58:42;95302.43;;;12.40;33.93
47080;BME280;33067;49.296;14.470;2023-03-14T01:01:09;95301.70;;;12.44;34.00
47080;BME280;33067;49.296;14.470;2023-03-14T01:03:33;95299.27;;;12.54;34.11
47080;BME280;33067;49.296;14.470;2023-03-14T01:06:07;95290.28;;;12.84;34.14
47080;BME280;33067;49.296;14.470;2023-03-14T01:08:24;95285.69;;;12.35;34.49
47080;BME280;33067;49.296;14.470;2023-03-14T01:10:49;95283.36;;;12.53;34.65
47080;BME280;33067;49.296;14.470;2023-03-14T01:13:14;95289.68;;;11.73;34.93
47080;BME280;33067;49.296;14.470;2023-03-14T01:15:39;95284.72;;;11.92;35.14
47080;BME280;33067;49.296;14.470;2023-03-14T01:18:05;95280.83;;;12.28;35.36
47080;BME280;33067;49.296;14.470;2023-03-14T01:20:30;95271.19;;;12.34;34.88
47080;BME280;33067;49.296;14.470;2023-03-14T01:22:56;95274.22;;;12.51;34.92
47080;BME280;33067;49.296;14.470;2023-03-14T01:25:21;95281.74;;;12.40;34.72
47080;BME280;33067;49.296;14.470;2023-03-14T01:27:47;95274.50;;;12.45;34.66
47080;BME280;33067;49.296;14.470;2023-03-14T01:30:13;95271.09;;;12.84;34.37
47080;BME280;33067;49.296;14.470;2023-03-14T01:32:38;95267.88;;;12.50;34.45
47080;BME280;33067;49.296;14.470;2023-03-14T01:35:03;95264.18;;;12.56;34.23
47080;BME280;33067;49.296;14.470;2023-03-14T01:37:28;95254.85;;;12.41;34.67
47080;BME280;33067;49.296;14.470;2023-03-14T01:39:53;95251.92;;;12.19;34.65
47080;BME280;33067;49.296;14.470;2023-03-14T01:42:19;95248.08;;;12.31;34.58
47080;BME280;33067;49.296;14.470;2023-03-14T01:44:51;95248.36;;;12.41;34.88
47080;BME280;33067;49.296;14.470;2023-03-14T01:47:10;95246.91;;;12.10;35.32
47080;BME280;33067;49.296;14.470;2023-03-14T01:49:36;95222.26;;;11.94;34.98
47080;BME280;33067;49.296;14.470;2023-03-14T01:52:03;95221.32;;;12.25;34.87
47080;BME280;33067;49.296;14.470;2023-03-14T01:54:30;95233.80;;;12.29;35.21
47080;BME280;33067;49.296;14.470;2023-03-14T01:56:55;95240.43;;;12.36;35.20
47080;BME280;33067;49.296;14.470;2023-03-14T01:59:17;95239.41;;;12.14;35.48
47080;BME280;33067;49.296;14.470;2023-03-14T02:01:45;95244.03;;;11.86;35.86
47080;BME280;33067;49.296;14.470;2023-03-14T02:04:08;95254.93;;;11.71;36.05
47080;BME280;33067;49.296;14.470;2023-03-14T02:06:40;95243.65;;;11.51;35.77
47080;BME280;33067;49.296;14.470;2023-03-14T02:08:59;95246.19;;;11.60;36.00
47080;BME280;33067;49.296;14.470;2023-03-14T02:11:28;95240.35;;;11.73;35.72
47080;BME280;33067;49.296;14.470;2023-03-14T02:13:49;95239.02;;;11.84;35.65
47080;BME280;33067;49.296;14.470;2023-03-14T02:16:14;95240.14;;;11.94;35.77
47080;BME280;33067;49.296;14.470;2023-03-14T02:18:40;95236.17;;;12.07;35.65
47080;BME280;33067;49.296;14.470;2023-03-14T02:21:11;95229.91;;;11.94;35.77
47080;BME280;33067;49.296;14.470;2023-03-14T02:23:36;95216.45;;;12.01;35.43
47080;BME280;33067;49.296;14.470;2023-03-14T02:26:00;95213.28;;;12.31;35.70
47080;BME280;33067;49.296;14.470;2023-03-14T02:28:21;95211.50;;;12.41;35.68
47080;BME280;33067;49.296;14.470;2023-03-14T02:30:47;95198.31;;;12.53;35.32
47080;BME280;33067;49.296;14.470;2023-03-14T02:33:14;95191.22;;;11.31;36.40
47080;BME280;33067;49.296;14.470;2023-03-14T02:35:41;95188.86;;;11.73;36.56
47080;BME280;33067;49.296;14.470;2023-03-14T02:38:08;95193.37;;;11.36;37.01
47080;BME280;33067;49.296;14.470;2023-03-14T02:40:28;95213.66;;;11.20;37.43
47080;BME280;33067;49.296;14.470;2023-03-14T02:42:54;95218.67;;;11.04;37.64
47080;BME280;33067;49.296;14.470;2023-03-14T02:45:32;95226.98;;;10.65;38.37
47080;BME280;33067;49.296;14.470;2023-03-14T02:47:46;95219.24;;;10.68;38.31
47080;BME280;33067;49.296;14.470;2023-03-14T02:50:13;95212.53;;;10.99;37.68
47080;BME280;33067;49.296;14.470;2023-03-14T02:52:35;95205.51;;;11.29;37.31
47080;BME280;33067;49.296;14.470;2023-03-14T02:55:00;95191.15;;;11.49;36.81
47080;BME280;33067;49.296;14.470;2023-03-14T02:57:25;95182.29;;;11.54;37.04
47080;BME280;33067;49.296;14.470;2023-03-14T02:59:51;95183.18;;;11.29;37.28
47080;BME280;33067;49.296;14.470;2023-03-14T03:02:16;95189.94;;;11.74;37.11
47080;BME280;33067;49.296;14.470;2023-03-14T03:04:42;95200.85;;;11.35;37.07
47080;BME280;33067;49.296;14.470;2023-03-14T03:07:07;95191.69;;;11.40;37.13
47080;BME280;33067;49.296;14.470;2023-03-14T03:09:33;95204.45;;;11.84;36.59
47080;BME280;33067;49.296;14.470;2023-03-14T03:13:02;95222.72;;;11.56;36.85
47080;BME280;33067;49.296;14.470;2023-03-14T03:15:28;95218.55;;;11.47;37.12
47080;BME280;33067;49.296;14.470;2023-03-14T03:17:52;95210.29;;;11.26;37.55
47080;BME280;33067;49.296;14.470;2023-03-14T03:20:18;95203.75;;;11.16;37.69
47080;BME280;33067;49.296;14.470;2023-03-14T03:22:43;95217.56;;;10.94;39.27
47080;BME280;33067;49.296;14.470;2023-03-14T03:25:09;95219.58;;;10.86;38.85
47080;BME280;33067;49.296;14.470;2023-03-14T03:27:35;95226.48;;;10.84;38.87
47080;BME280;33067;49.296;14.470;2023-03-14T03:30:00;95230.64;;;10.68;39.00
47080;BME280;33067;49.296;14.470;2023-03-14T03:32:25;95231.38;;;10.45;39.16
47080;BME280;33067;49.296;14.470;2023-03-14T03:34:50;95222.97;;;10.90;38.96
47080;BME280;33067;49.296;14.470;2023-03-14T03:37:15;95216.48;;;10.18;39.89
47080;BME280;33067;49.296;14.470;2023-03-14T03:39:42;95199.54;;;10.75;39.30
47080;BME280;33067;49.296;14.470;2023-03-14T03:42:05;95194.77;;;9.94;40.53
47080;BME280;33067;49.296;14.470;2023-03-14T03:44:31;95196.51;;;9.98;40.91
47080;BME280;33067;49.296;14.470;2023-03-14T03:46:56;95202.86;;;9.66;41.30
47080;BME280;33067;49.296;14.470;2023-03-14T03:49:22;95199.43;;;9.87;41.13
47080;BME280;33067;49.296;14.470;2023-03-14T03:51:47;95197.42;;;10.42;40.17
47080;BME280;33067;49.296;14.470;2023-03-14T03:54:12;95198.22;;;9.94;41.05
47080;BME280;33067;49.296;14.470;2023-03-14T03:56:38;95193.23;;;9.66;41.49
47080;BME280;33067;49.296;14.470;2023-03-14T03:59:03;95186.64;;;9.51;41.55
47080;BME280;33067;49.296;14.470;2023-03-14T04:01:28;95179.38;;;9.53;41.43
47080;BME280;33067;49.296;14.470;2023-03-14T04:03:55;95165.88;;;9.60;41.34
47080;BME280;33067;49.296;14.470;2023-03-14T04:06:19;95168.99;;;10.08;40.72
47080;BME280;33067;49.296;14.470;2023-03-14T04:08:44;95168.77;;;9.80;41.16
47080;BME280;33067;49.296;14.470;2023-03-14T04:11:09;95169.97;;;9.83;41.52
47080;BME280;33067;49.296;14.470;2023-03-14T04:13:34;95177.58;;;10.03;41.32
47080;BME280;33067;49.296;14.470;2023-03-14T04:16:00;95185.31;;;9.88;41.47
47080;BME280;33067;49.296;14.470;2023-03-14T04:18:25;95183.72;;;10.37;40.78
47080;BME280;33067;49.296;14.470;2023-03-14T04:20:52;95178.45;;;10.69;40.42
47080;BME280;33067;49.296;14.470;2023-03-14T04:23:16;95170.22;;;11.04;40.03
47080;BME280;33067;49.296;14.470;2023-03-14T04:25:41;95150.46;;;10.69;39.95
47080;BME280;33067;49.296;14.470;2023-03-14T04:28:07;95128.28;;;11.14;39.69
47080;BME280;33067;49.296;14.470;2023-03-14T04:30:32;95141.85;;;11.21;39.59
47080;BME280;33067;49.296;14.470;2023-03-14T04:32:57;95156.25;;;10.95;39.55
47080;BME280;33067;49.296;14.470;2023-03-14T04:35:23;95165.08;;;11.15;39.72
47080;BME280;33067;49.296;14.470;2023-03-14T04:37:48;95162.63;;;11.09;39.43
47080;BME280;33067;49.296;14.470;2023-03-14T04:40:16;95158.33;;;11.19;39.85
47080;BME280;33067;49.296;14.470;2023-03-14T04:42:39;95148.80;;;11.31;39.68
47080;BME280;33067;49.296;14.470;2023-03-14T04:45:05;95142.15;;;11.42;39.46
47080;BME280;33067;49.296;14.470;2023-03-14T04:47:29;95143.03;;;11.36;39.07
47080;BME280;33067;49.296;14.470;2023-03-14T04:49:55;95145.60;;;11.42;38.98
47080;BME280;33067;49.296;14.470;2023-03-14T04:52:20;95143.07;;;11.78;38.77
47080;BME280;33067;49.296;14.470;2023-03-14T04:54:46;95145.74;;;11.32;38.86
47080;BME280;33067;49.296;14.470;2023-03-14T04:57:11;95161.62;;;11.23;38.91
47080;BME280;33067;49.296;14.470;2023-03-14T04:59:36;95162.88;;;11.69;38.65
47080;BME280;33067;49.296;14.470;2023-03-14T05:02:01;95162.99;;;11.33;38.67
47080;BME280;33067;49.296;14.470;2023-03-14T05:04:27;95153.00;;;11.27;38.89
47080;BME280;33067;49.296;14.470;2023-03-14T05:06:52;95148.41;;;11.11;39.16
47080;BME280;33067;49.296;14.470;2023-03-14T05:09:18;95155.01;;;11.44;39.48
47080;BME280;33067;49.296;14.470;2023-03-14T05:11:43;95152.28;;;11.14;39.31
47080;BME280;33067;49.296;14.470;2023-03-14T05:14:08;95150.00;;;11.08;39.48
47080;BME280;33067;49.296;14.470;2023-03-14T05:16:34;95144.63;;;11.42;39.38
47080;BME280;33067;49.296;14.470;2023-03-14T05:19:00;95146.51;;;11.50;39.27
47080;BME280;33067;49.296;14.470;2023-03-14T05:21:24;95156.14;;;11.17;39.43
47080;BME280;33067;49.296;14.470;2023-03-14T05:23:50;95160.47;;;11.39;39.25
47080;BME280;33067;49.296;14.470;2023-03-14T05:26:15;95162.33;;;11.15;39.29
47080;BME280;33067;49.296;14.470;2023-03-14T05:28:40;95158.11;;;10.69;40.17
47080;BME280;33067;49.296;14.470;2023-03-14T05:31:07;95156.72;;;10.97;39.86
47080;BME280;33067;49.296;14.470;2023-03-14T05:33:31;95162.02;;;11.39;39.57
47080;BME280;33067;49.296;14.470;2023-03-14T05:35:57;95157.46;;;10.94;39.98
47080;BME280;33067;49.296;14.470;2023-03-14T05:38:23;95154.90;;;11.22;39.96
47080;BME280;33067;49.296;14.470;2023-03-14T05:40:47;95156.88;;;11.36;39.89
47080;BME280;33067;49.296;14.470;2023-03-14T05:43:13;95148.81;;;11.78;39.67
47080;BME280;33067;49.296;14.470;2023-03-14T05:45:38;95142.91;;;11.40;40.21
47080;BME280;33067;49.296;14.470;2023-03-14T05:48:04;95147.12;;;11.27;40.29
47080;BME280;33067;49.296;14.470;2023-03-14T05:50:29;95147.63;;;11.46;40.56
47080;BME280;33067;49.296;14.470;2023-03-14T05:52:54;95142.95;;;11.29;40.65
47080;BME280;33067;49.296;14.470;2023-03-14T05:55:19;95142.77;;;11.88;40.55
47080;BME280;33067;49.296;14.470;2023-03-14T05:57:45;95141.18;;;11.49;40.42
47080;BME280;33067;49.296;14.470;2023-03-14T06:00:11;95133.13;;;11.67;40.11
47080;BME280;33067;49.296;14.470;2023-03-14T06:02:36;95123.09;;;11.72;40.49
47080;BME280;33067;49.296;14.470;2023-03-14T06:05:02;95122.39;;;11.98;40.87
47080;BME280;33067;49.296;14.470;2023-03-14T06:07:27;95121.96;;;11.47;41.50
47080;BME280;33067;49.296;14.470;2023-03-14T06:09:53;95119.89;;;11.66;41.60
47080;BME280;33067;49.296;14.470;2023-03-14T06:12:18;95118.75;;;11.72;41.85
47080;BME280;33067;49.296;14.470;2023-03-14T06:14:43;95120.12;;;11.82;42.00
47080;BME280;33067;49.296;14.470;2023-03-14T06:17:09;95128.46;;;11.88;41.94
47080;BME280;33067;49.296;14.470;2023-03-14T06:19:34;95134.25;;;11.93;41.87
47080;BME280;33067;49.296;14.470;2023-03-14T06:21:59;95141.61;;;11.92;41.90
47080;BME280;33067;49.296;14.470;2023-03-14T06:24:26;95145.06;;;12.01;41.84
47080;BME280;33067;49.296;14.470;2023-03-14T06:26:50;95147.25;;;12.05;41.67
47080;BME280;33067;49.296;14.470;2023-03-14T06:29:15;95149.95;;;12.08;41.82
47080;BME280;33067;49.296;14.470;2023-03-14T06:31:40;95146.97;;;12.12;41.84
47080;BME280;33067;49.296;14.470;2023-03-14T06:34:05;95151.12;;;12.28;41.52
47080;BME280;33067;49.296;14.470;2023-03-14T06:36:31;95153.50;;;12.54;40.82
47080;BME280;33067;49.296;14.470;2023-03-14T06:38:56;95156.68;;;12.35;41.24
47080;BME280;33067;49.296;14.470;2023-03-14T06:41:23;95154.69;;;12.12;41.18
47080;BME280;33067;49.296;14.470;2023-03-14T06:43:46;95155.51;;;12.31;41.35
47080;BME280;33067;49.296;14.470;2023-03-14T06:46:12;95156.96;;;12.45;41.21
47080;BME280;33067;49.296;14.470;2023-03-14T06:48:37;95154.66;;;12.45;41.17
47080;BME280;33067;49.296;14.470;2023-03-14T06:51:03;95155.55;;;12.14;41.37
47080;BME280;33067;49.296;14.470;2023-03-14T06:53:28;95156.33;;;12.38;40.94
47080;BME280;33067;49.296;14.470;2023-03-14T06:55:53;95160.14;;;12.48;41.23
47080;BME280;33067;49.296;14.470;2023-03-14T06:58:19;95165.37;;;12.52;41.19
47080;BME280;33067;49.296;14.470;2023-03-14T07:00:44;95171.85;;;12.44;41.11
47080;BME280;33067;49.296;14.470;2023-03-14T07:03:10;95170.36;;;12.86;40.87
47080;BME280;33067;49.296;14.470;2023-03-14T07:05:34;95166.53;;;12.35;40.82
47080;BME280;33067;49.296;14.470;2023-03-14T07:07:59;95165.93;;;12.64;40.31
47080;BME280;33067;49.296;14.470;2023-03-14T07:10:25;95160.43;;;13.03;40.17
47080;BME280;33067;49.296;14.470;2023-03-14T07:12:50;95158.21;;;12.42;40.62
47080;BME280;33067;49.296;14.470;2023-03-14T07:15:15;95156.12;;;12.85;40.36
47080;BME280;33067;49.296;14.470;2023-03-14T07:17:40;95154.14;;;13.05;40.20
47080;BME280;33067;49.296;14.470;2023-03-14T07:20:07;95151.09;;;12.96;40.06
47080;BME280;33067;49.296;14.470;2023-03-14T07:22:31;95146.38;;;12.65;40.21
47080;BME280;33067;49.296;14.470;2023-03-14T07:24:56;95146.33;;;13.10;39.91
47080;BME280;33067;49.296;14.470;2023-03-14T07:27:22;95139.86;;;13.40;39.29
47080;BME280;33067;49.296;14.470;2023-03-14T07:29:47;95138.12;;;13.22;39.51
47080;BME280;33067;49.296;14.470;2023-03-14T07:32:12;95137.71;;;13.10;39.89
47080;BME280;33067;49.296;14.470;2023-03-14T07:34:38;95136.69;;;13.48;39.75
47080;BME280;33067;49.296;14.470;2023-03-14T07:37:03;95134.04;;;13.33;39.55
47080;BME280;33067;49.296;14.470;2023-03-14T07:39:29;95137.26;;;13.38;39.70
47080;BME280;33067;49.296;14.470;2023-03-14T07:41:54;95138.92;;;13.64;39.39
47080;BME280;33067;49.296;14.470;2023-03-14T07:44:19;95139.18;;;13.54;39.50
47080;BME280;33067;49.296;14.470;2023-03-14T07:46:45;95138.56;;;13.45;39.63
47080;BME280;33067;49.296;14.470;2023-03-14T07:49:11;95149.15;;;13.81;39.06
47080;BME280;33067;49.296;14.470;2023-03-14T07:51:37;95161.42;;;13.64;38.97
47080;BME280;33067;49.296;14.470;2023-03-14T07:54:02;95169.45;;;13.56;38.79
47080;BME280;33067;49.296;14.470;2023-03-14T07:56:27;95174.61;;;13.95;38.96
47080;BME280;33067;49.296;14.470;2023-03-14T07:58:52;95175.17;;;13.38;39.02
47080;BME280;33067;49.296;14.470;2023-03-14T08:01:18;95176.80;;;13.79;38.80
47080;BME280;33067;49.296;14.470;2023-03-14T08:06:09;95168.95;;;13.55;38.81
47080;BME280;33067;49.296;14.470;2023-03-14T08:08:34;95161.93;;;13.82;38.51
47080;BME280;33067;49.296;14.470;2023-03-14T08:11:03;95152.87;;;13.73;38.36
47080;BME280;33067;49.296;14.470;2023-03-14T08:13:24;95154.64;;;13.76;38.05
47080;BME280;33067;49.296;14.470;2023-03-14T08:15:50;95162.14;;;14.30;37.53
47080;BME280;33067;49.296;14.470;2023-03-14T08:18:15;95161.32;;;14.01;37.78
47080;BME280;33067;49.296;14.470;2023-03-14T08:20:40;95162.60;;;14.60;37.29
47080;BME280;33067;49.296;14.470;2023-03-14T08:23:05;95164.09;;;14.79;37.00
47080;BME280;33067;49.296;14.470;2023-03-14T08:25:31;95157.36;;;14.39;37.11
47080;BME280;33067;49.296;14.470;2023-03-14T08:27:56;95163.14;;;14.54;37.04
47080;BME280;33067;49.296;14.470;2023-03-14T08:30:22;95162.94;;;14.27;36.97
47080;BME280;33067;49.296;14.470;2023-03-14T08:32:47;95158.62;;;14.84;36.50
47080;BME280;33067;49.296;14.470;2023-03-14T08:35:13;95162.34;;;14.71;36.67
47080;BME280;33067;49.296;14.470;2023-03-14T08:37:38;95171.14;;;14.48;36.75
47080;BME280;33067;49.296;14.470;2023-03-14T08:40:04;95173.33;;;14.59;36.61
47080;BME280;33067;49.296;14.470;2023-03-14T08:42:28;95177.03;;;14.59;36.64
47080;BME280;33067;49.296;14.470;2023-03-14T08:44:53;95182.01;;;14.69;36.36
47080;BME280;33067;49.296;14.470;2023-03-14T08:47:18;95188.72;;;14.67;36.27
47080;BME280;33067;49.296;14.470;2023-03-14T08:49:44;95190.46;;;14.43;36.19
47080;BME280;33067;49.296;14.470;2023-03-14T08:52:10;95190.65;;;14.58;36.14
47080;BME280;33067;49.296;14.470;2023-03-14T08:54:35;95196.17;;;14.27;36.83
47080;BME280;33067;49.296;14.470;2023-03-14T08:57:01;95190.26;;;14.19;36.63
47080;BME280;33067;49.296;14.470;2023-03-14T08:59:26;95193.16;;;14.52;36.39
47080;BME280;33067;49.296;14.470;2023-03-14T09:01:52;95193.68;;;14.41;36.74
47080;BME280;33067;49.296;14.470;2023-03-14T09:04:18;95195.30;;;14.96;35.72
47080;BME280;33067;49.296;14.470;2023-03-14T09:06:43;95187.69;;;13.94;36.81
47080;BME280;33067;49.296;14.470;2023-03-14T09:09:09;95193.65;;;14.22;36.18
47080;BME280;33067;49.296;14.470;2023-03-14T09:11:34;95189.35;;;15.10;35.31
47080;BME280;33067;49.296;14.470;2023-03-14T09:14:00;95195.04;;;15.20;35.32
47080;BME280;33067;49.296;14.470;2023-03-14T09:16:25;95196.55;;;15.22;35.38
47080;BME280;33067;49.296;14.470;2023-03-14T09:18:50;95195.26;;;14.64;35.46
47080;BME280;33067;49.296;14.470;2023-03-14T09:21:16;95201.89;;;15.02;35.13
47080;BME280;33067;49.296;14.470;2023-03-14T09:23:42;95210.48;;;15.06;35.13
47080;BME280;33067;49.296;14.470;2023-03-14T09:26:08;95207.90;;;15.34;34.98
47080;BME280;33067;49.296;14.470;2023-03-14T09:28:33;95204.52;;;15.06;34.68
47080;BME280;33067;49.296;14.470;2023-03-14T09:31:05;95204.36;;;14.85;35.03
47080;BME280;33067;49.296;14.470;2023-03-14T09:33:24;95200.81;;;15.01;34.73
47080;BME280;33067;49.296;14.470;2023-03-14T09:35:49;95194.61;;;15.35;34.22
47080;BME280;33067;49.296;14.470;2023-03-14T09:38:14;95197.02;;;14.65;35.09
47080;BME280;33067;49.296;14.470;2023-03-14T09:40:40;95195.72;;;15.22;34.36
47080;BME280;33067;49.296;14.470;2023-03-14T09:43:08;95196.99;;;15.12;34.33
47080;BME280;33067;49.296;14.470;2023-03-14T09:45:34;95200.27;;;14.59;34.82
47080;BME280;33067;49.296;14.470;2023-03-14T09:47:57;95201.39;;;15.10;34.24
47080;BME280;33067;49.296;14.470;2023-03-14T09:50:22;95198.43;;;15.23;34.10
47080;BME280;33067;49.296;14.470;2023-03-14T09:52:49;95203.75;;;15.06;34.28
47080;BME280;33067;49.296;14.470;2023-03-14T09:55:16;95202.33;;;15.15;34.13
47080;BME280;33067;49.296;14.470;2023-03-14T09:57:39;95198.21;;;14.91;34.05
47080;BME280;33067;49.296;14.470;2023-03-14T10:00:10;95204.06;;;14.92;34.01
47080;BME280;33067;49.296;14.470;2023-03-14T10:02:34;95202.48;;;14.65;34.45
47080;BME280;33067;49.296;14.470;2023-03-14T10:04:54;95205.28;;;15.13;33.91
47080;BME280;33067;49.296;14.470;2023-03-14T10:07:25;95203.78;;;14.93;34.02
47080;BME280;33067;49.296;14.470;2023-03-14T10:09:47;95201.52;;;15.17;33.96
47080;BME280;33067;49.296;14.470;2023-03-14T10:12:11;95202.00;;;15.09;34.13
47080;BME280;33067;49.296;14.470;2023-03-14T10:14:37;95197.96;;;14.69;34.07
47080;BME280;33067;49.296;14.470;2023-03-14T10:17:07;95192.06;;;15.35;33.28
47080;BME280;33067;49.296;14.470;2023-03-14T10:19:26;95190.92;;;14.78;33.59
47080;BME280;33067;49.296;14.470;2023-03-14T10:21:53;95193.78;;;15.26;33.56
47080;BME280;33067;49.296;14.470;2023-03-14T10:24:20;95196.13;;;14.78;33.59
47080;BME280;33067;49.296;14.470;2023-03-14T10:26:42;95194.89;;;15.13;33.16
47080;BME280;33067;49.296;14.470;2023-03-14T10:29:11;95192.29;;;15.05;33.14
47080;BME280;33067;49.296;14.470;2023-03-14T10:33:59;95193.56;;;15.45;32.64
47080;BME280;33067;49.296;14.470;2023-03-14T10:36:24;95188.88;;;15.48;32.74
47080;BME280;33067;49.296;14.470;2023-03-14T10:38:48;95192.06;;;14.77;32.86
47080;BME280;33067;49.296;14.470;2023-03-14T10:41:17;95188.33;;;14.62;32.73
47080;BME280;33067;49.296;14.470;2023-03-14T10:43:38;95193.02;;;14.70;32.82
47080;BME280;33067;49.296;14.470;2023-03-14T10:46:09;95195.65;;;15.19;32.35
47080;BME280;33067;49.296;14.470;2023-03-14T10:48:31;95197.08;;;14.50;32.65
47080;BME280;33067;49.296;14.470;2023-03-14T10:50:56;95203.42;;;14.59;32.81
47080;BME280;33067;49.296;14.470;2023-03-14T10:53:19;95198.60;;;15.04;32.38
47080;BME280;33067;49.296;14.470;2023-03-14T10:55:45;95196.75;;;14.42;32.93
47080;BME280;33067;49.296;14.470;2023-03-14T10:58:20;95195.84;;;14.83;32.41
47080;BME280;33067;49.296;14.470;2023-03-14T11:00:35;95196.53;;;14.91;32.42
47080;BME280;33067;49.296;14.470;2023-03-14T11:03:07;95194.56;;;14.65;32.78
47080;BME280;33067;49.296;14.470;2023-03-14T11:05:30;95187.59;;;15.44;32.52
47080;BME280;33067;49.296;14.470;2023-03-14T11:07:52;95184.27;;;14.90;32.34
47080;BME280;33067;49.296;14.470;2023-03-14T11:10:20;95186.20;;;15.02;32.27
47080;BME280;33067;49.296;14.470;2023-03-14T11:12:49;95187.78;;;14.77;32.90
47080;BME280;33067;49.296;14.470;2023-03-14T11:15:13;95185.49;;;14.94;32.63
47080;BME280;33067;49.296;14.470;2023-03-14T11:17:37;95185.32;;;14.86;32.45
47080;BME280;33067;49.296;14.470;2023-03-14T11:20:05;95189.85;;;14.91;32.63
47080;BME280;33067;49.296;14.470;2023-03-14T11:22:27;95187.99;;;14.70;32.91
47080;BME280;33067;49.296;14.470;2023-03-14T11:25:00;95185.48;;;15.18;32.47
47080;BME280;33067;49.296;14.470;2023-03-14T11:27:17;95180.42;;;15.61;32.20
47080;BME280;33067;49.296;14.470;2023-03-14T11:29:39;95171.68;;;15.46;32.32
47080;BME280;33067;49.296;14.470;2023-03-14T11:32:11;95171.33;;;15.51;31.63
47080;BME280;33067;49.296;14.470;2023-03-14T11:34:30;95161.45;;;15.33;31.97
47080;BME280;33067;49.296;14.470;2023-03-14T11:36:58;95166.03;;;15.16;32.23
47080;BME280;33067;49.296;14.470;2023-03-14T11:39:19;95166.09;;;15.24;32.10
47080;BME280;33067;49.296;14.470;2023-03-14T11:41:46;95166.97;;;15.04;32.40
47080;BME280;33067;49.296;14.470;2023-03-14T11:44:17;95166.78;;;15.60;32.03
47080;BME280;33067;49.296;14.470;2023-03-14T11:46:38;95166.92;;;15.64;32.15
47080;BME280;33067;49.296;14.470;2023-03-14T11:49:03;95167.46;;;15.42;32.37
47080;BME280;33067;49.296;14.470;2023-03-14T11:51:29;95163.77;;;15.61;32.00
47080;BME280;33067;49.296;14.470;2023-03-14T11:53:59;95163.87;;;15.46;31.94
47080;BME280;33067;49.296;14.470;2023-03-14T11:56:22;95165.88;;;15.31;32.40
47080;BME280;33067;49.296;14.470;2023-03-14T11:58:44;95166.57;;;15.29;32.34
47080;BME280;33067;49.296;14.470;2023-03-14T12:01:10;95168.26;;;15.51;32.18
47080;BME280;33067;49.296;14.470;2023-03-14T12:03:36;95161.64;;;15.91;31.88
47080;BME280;33067;49.296;14.470;2023-03-14T12:06:03;95156.06;;;15.69;32.03
47080;BME280;33067;49.296;14.470;2023-03-14T12:08:38;95159.28;;;15.84;31.90
47080;BME280;33067;49.296;14.470;2023-03-14T12:10:51;95164.10;;;15.60;32.20
47080;BME280;33067;49.296;14.470;2023-03-14T12:13:15;95157.95;;;14.89;32.83
47080;BME280;33067;49.296;14.470;2023-03-14T12:15:41;95158.48;;;15.22;32.40
47080;BME280;33067;49.296;14.470;2023-03-14T12:18:17;95158.66;;;15.34;32.55
47080;BME280;33067;49.296;14.470;2023-03-14T12:20:31;95156.68;;;15.29;32.47
47080;BME280;33067;49.296;14.470;2023-03-14T12:23:02;95150.34;;;15.53;32.28
47080;BME280;33067;49.296;14.470;2023-03-14T12:25:23;95143.45;;;15.69;32.21
47080;BME280;33067;49.296;14.470;2023-03-14T12:30:24;95148.20;;;16.30;31.33
47080;BME280;33067;49.296;14.470;2023-03-14T12:32:38;95152.33;;;15.88;31.71
47080;BME280;33067;49.296;14.470;2023-03-14T12:37:35;95149.58;;;15.60;31.75
47080;BME280;33067;49.296;14.470;2023-03-14T12:40:10;95144.56;;;16.19;31.18
47080;BME280;33067;49.296;14.470;2023-03-14T12:42:36;95143.24;;;16.12;30.93
47080;BME280;33067;49.296;14.470;2023-03-14T12:44:48;95137.47;;;16.10;30.89
47080;BME280;33067;49.296;14.470;2023-03-14T12:49:55;95137.32;;;16.04;31.10
47080;BME280;33067;49.296;14.470;2023-03-14T12:52:10;95133.03;;;15.84;30.89